Caledon, Canada
Current Conditions -  °F | °C
As of 7:00 AM on Friday 28 Nov 2014 (Local Time) from CYYZ Reporting Station
Few Clouds Few Clouds  
Wind Chill: -13°   Ceiling: Unl
Heat Index: -7°   Visibility: 15mi
Dew Point: -11°   Wind: 8mph
Humidity: 74%   Direction: 290°WNW
Pressure: 30.24"   Gusts: NA
Location:  43.87°N, 80°W
Report Text: CYYZ 281200Z 29007KT 15SM FEW030 FEW200 M07/M11 A3024 RMK SC1CI1 SC TR CI TR SLP249
Loading
Personal Weather Stations






























Interactive Weather Map New forecast layout! Learn more

10-Day Weather Forecast

Advertisements
Track Severe Weather on mobile